LFMH/EBU METAR and TAF weather

Enter ICAO airport designator
Station Type Date Time Source
LFMH METAR 2020/11/27 02:30 UTC NOAA

LFMH 270230Z AUTO 18006KT CAVOK 06/04 Q1018


Station Type Date Time Source
LFMH Decoded METAR 2020/11/27 02:30 UTC NOAA

St-Etienne Boutheon, France (LFMH) 45-32N 004-18E 402M
Nov 26, 2020 - 09:30 PM EST / 2020.11.27 0230 UTC
Wind: from the S (180 degrees) at 7 MPH (6 KT):0
Visibility: greater than 7 mile(s):0
Temperature: 42 F (6 C)
Dew Point: 39 F (4 C)
Relative Humidity: 86%
Pressure (altimeter): 30.06 in. Hg (1018 hPa)
ob: LFMH 270230Z AUTO 18006KT CAVOK 06/04 Q1018
cycle: 2

Station Type Date Time Source
LFMH TAF 2020/11/26 20:54 UTC NOAA

TAF
AMD LFMH 262004Z 2620/2718 CNL

Example: see airport list